Time;durP1;ratioP1;P1;durP2;ratioP2;P2;SDS_P1;SDS_P2;PMS_P1;PMS_P2;Temp;Humidity;BMP_temperature;BMP_pressure;BME280_temperature;BME280_humidity;BME280_pressure;Samples;Min_cycle;Max_cycle;Signal;HPM_P1;HPM_P2
2022/04/04 00:01:00;;;;;;;;;22.75;22.75;;;;;;;;4952031;28;28596;-86
2022/04/04 00:03:25;;;;;;;;;22.50;20.50;;;;;;;;4952103;28;28477;-86
2022/04/04 00:05:50;;;;;;;;;22.25;21.50;;;;;;;;4951288;28;28279;-87
2022/04/04 00:08:16;;;;;;;;;24.25;24.25;;;;;;;;4951237;28;28288;-86
2022/04/04 00:10:41;;;;;;;;;22.00;22.00;;;;;;;;4951683;28;28458;-86
2022/04/04 00:13:06;;;;;;;;;24.00;21.67;;;;;;;;4951296;28;28497;-86
2022/04/04 00:15:31;;;;;;;;;23.00;21.50;;;;;;;;4952186;28;28545;-86
2022/04/04 00:17:57;;;;;;;;;26.00;21.33;;;;;;;;4951574;28;28561;-86
2022/04/04 00:20:23;;;;;;;;;19.50;19.50;;;;;;;;4951460;28;28574;-85
2022/04/04 00:22:48;;;;;;;;;19.00;19.00;;;;;;;;4951885;28;28415;-86
2022/04/04 00:25:14;;;;;;;;;20.00;18.50;;;;;;;;4951593;28;28332;-85
2022/04/04 00:27:39;;;;;;;;;27.00;25.50;;;;;;;;4950910;28;29186;-85
2022/04/04 00:30:05;;;;;;;;;21.67;19.00;;;;;;;;4934164;28;29423;-85
2022/04/04 00:32:30;;;;;;;;;20.25;18.00;;;;;;;;4951802;28;28373;-86
2022/04/04 00:34:55;;;;;;;;;21.33;19.00;;;;;;;;4951990;28;28598;-86
2022/04/04 00:37:21;;;;;;;;;21.00;18.33;;;;;;;;4951199;28;28537;-86
2022/04/04 00:39:46;;;;;;;;;23.00;18.50;;;;;;;;4950744;28;28760;-85
2022/04/04 00:42:15;;;;;;;;;19.25;16.00;;;;;;;;4933915;28;28447;-86
2022/04/04 00:44:40;;;;;;;;;22.20;20.20;;;;;;;;4951827;28;28439;-86
2022/04/04 00:47:07;;;;;;;;;20.50;17.25;;;;;;;;4934234;28;30854;-86
2022/04/04 00:49:32;;;;;;;;;20.50;16.00;;;;;;;;4934080;28;28376;-86
2022/04/04 00:51:57;;;;;;;;;19.33;17.67;;;;;;;;4951033;28;28355;-86
2022/04/04 00:54:23;;;;;;;;;14.00;14.00;;;;;;;;4950832;28;28386;-85
2022/04/04 00:56:48;;;;;;;;;16.67;16.67;;;;;;;;4933782;28;28460;-86
2022/04/04 00:59:16;;;;;;;;;17.00;17.00;;;;;;;;4951572;28;28400;-86
2022/04/04 01:01:41;;;;;;;;;19.00;17.40;;;;;;;;4950849;28;28358;-86
2022/04/04 01:04:08;;;;;;;;;20.75;20.75;;;;;;;;4933959;28;28768;-86
2022/04/04 01:06:35;;;;;;;;;15.80;15.80;;;;;;;;4951148;28;28848;-85
2022/04/04 01:09:02;;;;;;;;;15.25;15.25;;;;;;;;4950863;28;28499;-86
2022/04/04 01:11:27;;;;;;;;;18.20;14.40;;;;;;;;4951078;28;28349;-86
2022/04/04 01:13:52;;;;;;;;;23.00;21.00;;;;;;;;4951089;28;28576;-86
2022/04/04 01:16:17;;;;;;;;;20.75;19.75;;;;;;;;4950502;28;28771;-86
2022/04/04 01:18:43;;;;;;;;;26.50;20.75;;;;;;;;4951017;28;28552;-86
2022/04/04 01:21:09;;;;;;;;;22.00;20.50;;;;;;;;4933631;28;28406;-85
2022/04/04 01:23:38;;;;;;;;;23.00;21.25;;;;;;;;4951231;28;28406;-85
2022/04/04 01:26:03;;;;;;;;;21.25;21.25;;;;;;;;4950544;28;28501;-86
2022/04/04 01:28:28;;;;;;;;;18.67;18.67;;;;;;;;4933221;28;28523;-86
2022/04/04 01:30:53;;;;;;;;;25.00;22.00;;;;;;;;4950679;28;28299;-86
2022/04/04 01:33:19;;;;;;;;;23.25;23.25;;;;;;;;4933567;28;28605;-86
2022/04/04 01:35:45;;;;;;;;;24.00;23.00;;;;;;;;4950809;28;28503;-85
2022/04/04 01:38:10;;;;;;;;;18.75;16.00;;;;;;;;4950429;28;28363;-85
2022/04/04 01:40:35;;;;;;;;;21.50;18.50;;;;;;;;4950209;28;28320;-86
2022/04/04 01:43:00;;;;;;;;;19.00;19.00;;;;;;;;4950737;28;28315;-86
2022/04/04 01:48:10;;;;;;;;;22.25;20.75;;;;;;;;4949849;28;28311;-85
2022/04/04 01:50:36;;;;;;;;;19.75;18.25;;;;;;;;4933512;28;27797;-86
2022/04/04 01:55:45;;;;;;;;;15.00;15.00;;;;;;;;4950475;28;28415;-85
2022/04/04 01:58:10;;;;;;;;;22.00;20.00;;;;;;;;4932832;28;28533;-85
2022/04/04 02:00:36;;;;;;;;;17.67;17.67;;;;;;;;4950679;28;28324;-85
2022/04/04 02:03:01;;;;;;;;;20.50;19.00;;;;;;;;4950584;28;28288;-86
2022/04/04 02:05:27;;;;;;;;;18.25;14.25;;;;;;;;4949897;28;28703;-85
2022/04/04 02:07:52;;;;;;;;;14.00;14.00;;;;;;;;4932462;28;28916;-85
2022/04/04 02:10:17;;;;;;;;;13.67;13.33;;;;;;;;4950507;28;28304;-86
2022/04/04 02:12:42;;;;;;;;;19.00;17.25;;;;;;;;4933063;28;28404;-85
2022/04/04 02:15:08;;;;;;;;;13.00;13.00;;;;;;;;4950399;28;28931;-85
2022/04/04 02:17:33;;;;;;;;;17.25;16.50;;;;;;;;4933796;28;28844;-86
2022/04/04 02:19:58;;;;;;;;;16.25;14.25;;;;;;;;4950222;28;28764;-86
2022/04/04 02:22:24;;;;;;;;;14.67;13.67;;;;;;;;4950705;28;28317;-86
2022/04/04 02:24:49;;;;;;;;;16.75;15.00;;;;;;;;4932977;28;30029;-85
2022/04/04 02:27:14;;;;;;;;;15.50;15.50;;;;;;;;4950393;28;28375;-86
2022/04/04 02:29:39;;;;;;;;;17.00;17.00;;;;;;;;4950312;28;28434;-86
2022/04/04 02:32:05;;;;;;;;;15.00;15.00;;;;;;;;4933098;28;28450;-86
2022/04/04 02:34:30;;;;;;;;;14.00;14.00;;;;;;;;4932548;28;29876;-86
2022/04/04 02:36:55;;;;;;;;;17.25;17.25;;;;;;;;4950112;28;28505;-85
2022/04/04 02:39:20;;;;;;;;;14.75;11.75;;;;;;;;4932437;28;28367;-86
2022/04/04 02:41:46;;;;;;;;;18.25;18.25;;;;;;;;4950109;28;28619;-87
2022/04/04 02:44:11;;;;;;;;;14.00;12.75;;;;;;;;4949895;28;29601;-86
2022/04/04 02:46:37;;;;;;;;;14.00;14.00;;;;;;;;4932749;28;29373;-86
2022/04/04 02:49:02;;;;;;;;;13.00;13.00;;;;;;;;4949879;28;28487;-86
2022/04/04 02:51:27;;;;;;;;;15.00;13.67;;;;;;;;4950253;28;28399;-86
2022/04/04 02:53:52;;;;;;;;;17.00;14.00;;;;;;;;4949820;28;29374;-87
2022/04/04 02:56:30;;;;;;;;;14.00;14.00;;;;;;;;4932302;28;28695;-86
2022/04/04 02:58:56;;;;;;;;;13.25;13.25;;;;;;;;4932108;28;28414;-86
2022/04/04 03:01:22;;;;;;;;;14.00;14.00;;;;;;;;4932577;28;28451;-86
2022/04/04 03:03:47;;;;;;;;;14.25;14.25;;;;;;;;4949575;28;29236;-86
2022/04/04 03:06:13;;;;;;;;;18.33;14.33;;;;;;;;4949762;28;28366;-86
2022/04/04 03:08:38;;;;;;;;;14.75;14.75;;;;;;;;4949858;28;28500;-86
2022/04/04 03:11:03;;;;;;;;;12.33;11.67;;;;;;;;4931968;28;28428;-86
2022/04/04 03:13:29;;;;;;;;;17.00;17.00;;;;;;;;4949581;28;28593;-86
2022/04/04 03:15:54;;;;;;;;;14.00;14.00;;;;;;;;4950096;28;28356;-86
2022/04/04 03:18:19;;;;;;;;;15.00;15.00;;;;;;;;4935732;28;28769;-86
2022/04/04 03:20:45;;;;;;;;;15.75;13.75;;;;;;;;4953157;28;28462;-87
2022/04/04 03:23:10;;;;;;;;;17.67;17.67;;;;;;;;4952711;28;29531;-87
2022/04/04 03:25:35;;;;;;;;;18.67;16.33;;;;;;;;4952694;28;28866;-87
2022/04/04 03:28:00;;;;;;;;;15.33;15.33;;;;;;;;4952651;28;28561;-87
2022/04/04 03:30:26;;;;;;;;;14.50;14.50;;;;;;;;4952751;28;28438;-88
2022/04/04 03:32:55;;;;;;;;;14.50;14.25;;;;;;;;4952683;28;28514;-87
2022/04/04 03:35:21;;;;;;;;;18.00;15.00;;;;;;;;4952791;28;28398;-87
2022/04/04 03:37:48;;;;;;;;;14.60;14.60;;;;;;;;4952931;28;28552;-88
2022/04/04 03:40:13;;;;;;;;;17.80;14.60;;;;;;;;4952529;28;28350;-88
2022/04/04 03:42:40;;;;;;;;;20.00;16.00;;;;;;;;4935082;28;30244;-86
2022/04/04 03:45:06;;;;;;;;;14.25;14.25;;;;;;;;4952330;28;28375;-87
2022/04/04 03:47:32;;;;;;;;;19.00;19.00;;;;;;;;4952432;28;28757;-87
2022/04/04 03:49:59;;;;;;;;;19.00;15.00;;;;;;;;4935074;28;28386;-87
2022/04/04 03:52:24;;;;;;;;;15.60;15.60;;;;;;;;4952364;28;28347;-88
2022/04/04 03:54:50;;;;;;;;;15.40;15.40;;;;;;;;4952272;28;28493;-88
2022/04/04 03:57:15;;;;;;;;;20.00;17.25;;;;;;;;4952178;28;28455;-88
2022/04/04 03:59:40;;;;;;;;;15.00;15.00;;;;;;;;4951995;28;28308;-89
2022/04/04 04:02:06;;;;;;;;;22.00;20.25;;;;;;;;4951663;28;29001;-87
2022/04/04 04:04:31;;;;;;;;;13.00;12.67;;;;;;;;4951861;28;28439;-85
2022/04/04 04:06:56;;;;;;;;;19.75;16.75;;;;;;;;4952119;28;28364;-87
2022/04/04 04:09:21;;;;;;;;;22.25;18.25;;;;;;;;4952142;28;27819;-87
2022/04/04 04:11:48;;;;;;;;;15.75;15.50;;;;;;;;4934514;28;29962;-88
2022/04/04 04:14:13;;;;;;;;;17.00;17.00;;;;;;;;4951983;28;28390;-88
2022/04/04 04:16:38;;;;;;;;;19.00;16.00;;;;;;;;4952294;28;28879;-87
2022/04/04 04:19:03;;;;;;;;;21.00;19.00;;;;;;;;4951902;28;28429;-87
2022/04/04 04:21:28;;;;;;;;;16.00;16.00;;;;;;;;4934389;28;30505;-87
2022/04/04 04:23:54;;;;;;;;;19.00;18.00;;;;;;;;4951809;28;28404;-87
2022/04/04 04:26:21;;;;;;;;;23.50;18.50;;;;;;;;4951535;28;28520;-85
2022/04/04 04:28:46;;;;;;;;;18.00;18.00;;;;;;;;4933861;28;28510;-86
2022/04/04 04:31:17;;;;;;;;;21.67;20.33;;;;;;;;4951785;28;28844;-85
2022/04/04 04:33:42;;;;;;;;;17.40;17.40;;;;;;;;4951612;28;28398;-85
2022/04/04 04:36:07;;;;;;;;;22.00;18.00;;;;;;;;4934299;28;28410;-85
2022/04/04 04:38:34;;;;;;;;;20.00;16.00;;;;;;;;4934477;28;28425;-85
2022/04/04 04:40:59;;;;;;;;;17.60;15.00;;;;;;;;4951114;28;29186;-85
2022/04/04 04:43:24;;;;;;;;;26.00;17.75;;;;;;;;4934327;28;30032;-85
2022/04/04 04:45:50;;;;;;;;;16.00;16.00;;;;;;;;4933989;28;28346;-88
2022/04/04 04:48:15;;;;;;;;;15.00;15.00;;;;;;;;4950804;28;27885;-88
2022/04/04 04:50:40;;;;;;;;;21.00;21.00;;;;;;;;4933583;28;29810;-88
2022/04/04 04:53:06;;;;;;;;;21.00;20.75;;;;;;;;4951308;28;28444;-89
2022/04/04 04:55:31;;;;;;;;;23.67;17.67;;;;;;;;4934035;28;28375;-88
2022/04/04 04:57:56;;;;;;;;;19.00;15.67;;;;;;;;4950444;28;28457;-87
2022/04/04 05:00:23;;;;;;;;;21.50;19.00;;;;;;;;4933293;28;30774;-88
2022/04/04 05:03:24;;;;;;;;;21.00;19.00;;;;;;;;4951291;28;28406;-84
2022/04/04 05:05:35;;;;;;;;;18.00;18.00;;;;;;;;4950926;28;28386;-84
2022/04/04 05:08:00;;;;;;;;;23.50;21.50;;;;;;;;4950806;28;28390;-87
2022/04/04 05:10:26;;;;;;;;;22.25;18.25;;;;;;;;4950912;28;28680;-90
2022/04/04 05:12:51;;;;;;;;;25.00;22.40;;;;;;;;4951182;28;28446;-87
2022/04/04 05:15:17;;;;;;;;;22.33;22.33;;;;;;;;4951291;28;28418;-90
2022/04/04 05:17:42;;;;;;;;;28.00;23.25;;;;;;;;4935585;28;28549;-90
2022/04/04 05:20:07;;;;;;;;;26.33;25.00;;;;;;;;4935103;28;30799;-92
2022/04/04 05:22:32;;;;;;;;;26.00;23.00;;;;;;;;4934942;28;30064;-92
2022/04/04 05:24:58;;;;;;;;;25.00;23.33;;;;;;;;4951849;28;28549;-92
2022/04/04 05:27:23;;;;;;;;;23.00;23.00;;;;;;;;4953390;28;28591;-92
2022/04/04 05:29:48;;;;;;;;;23.50;23.50;;;;;;;;4935646;28;29725;-91
2022/04/04 05:32:13;;;;;;;;;25.50;24.25;;;;;;;;4933817;28;28576;-92
2022/04/04 05:34:39;;;;;;;;;22.33;21.00;;;;;;;;4953494;28;28853;-90
2022/04/04 05:37:04;;;;;;;;;20.33;20.33;;;;;;;;4934429;28;28678;-91
2022/04/04 05:39:29;;;;;;;;;25.75;24.75;;;;;;;;4933214;28;28483;-91
2022/04/04 05:41:54;;;;;;;;;30.00;25.33;;;;;;;;4951045;28;28541;-91
2022/04/04 05:44:20;;;;;;;;;23.00;21.75;;;;;;;;4934152;28;28359;-88
2022/04/04 05:46:46;;;;;;;;;24.00;21.50;;;;;;;;4950997;28;28484;-91
2022/04/04 05:49:12;;;;;;;;;25.40;24.20;;;;;;;;4953462;28;28413;-93
2022/04/04 05:51:37;;;;;;;;;27.00;25.00;;;;;;;;4933770;28;28394;-89
2022/04/04 05:54:02;;;;;;;;;22.75;22.75;;;;;;;;4951143;28;28374;-90
2022/04/04 05:56:28;;;;;;;;;25.25;25.00;;;;;;;;4951045;28;28415;-91
2022/04/04 05:58:53;;;;;;;;;24.00;23.67;;;;;;;;4934362;28;30028;-91
2022/04/04 06:01:18;;;;;;;;;24.75;22.00;;;;;;;;4954498;28;28506;-90
2022/04/04 06:03:44;;;;;;;;;26.25;22.50;;;;;;;;4944303;28;28425;-92
2022/04/04 06:06:09;;;;;;;;;29.25;26.25;;;;;;;;4935317;28;28264;-90
2022/04/04 06:08:34;;;;;;;;;23.25;23.25;;;;;;;;4933783;28;28723;-85
2022/04/04 06:11:00;;;;;;;;;25.00;25.00;;;;;;;;4951370;28;28353;-92
2022/04/04 06:13:25;;;;;;;;;27.00;24.33;;;;;;;;4933300;28;28642;-92
2022/04/04 06:15:50;;;;;;;;;28.25;25.00;;;;;;;;4950495;28;28251;-88
2022/04/04 06:18:16;;;;;;;;;22.67;22.67;;;;;;;;4950374;28;28838;-91
2022/04/04 06:20:41;;;;;;;;;24.25;22.50;;;;;;;;4932377;28;28659;-92
2022/04/04 06:23:07;;;;;;;;;27.00;24.50;;;;;;;;4921230;28;28473;-93
2022/04/04 06:25:35;;;;;;;;;23.00;21.00;;;;;;;;4940545;28;28548;-95
2022/04/04 06:28:01;;;;;;;;;24.50;23.00;;;;;;;;4960226;28;28234;-93
2022/04/04 06:30:27;;;;;;;;;31.33;27.00;;;;;;;;4939273;28;28396;-91
2022/04/04 06:32:52;;;;;;;;;25.75;25.75;;;;;;;;4944812;28;27852;-90
2022/04/04 06:35:18;;;;;;;;;21.25;21.25;;;;;;;;4959402;28;28411;-91
2022/04/04 06:37:44;;;;;;;;;22.00;20.75;;;;;;;;4937316;28;29928;-89
2022/04/04 06:40:10;;;;;;;;;28.50;21.00;;;;;;;;4952596;28;28390;-91
2022/04/04 06:42:36;;;;;;;;;25.20;24.40;;;;;;;;4935608;28;27715;-90
2022/04/04 06:45:01;;;;;;;;;27.50;22.75;;;;;;;;4933676;28;28689;-90
2022/04/04 06:47:27;;;;;;;;;20.75;20.75;;;;;;;;4956803;28;28301;-92
2022/04/04 06:49:52;;;;;;;;;22.33;20.00;;;;;;;;4956795;28;28717;-93
2022/04/04 06:52:18;;;;;;;;;29.00;25.00;;;;;;;;4959312;28;27727;-89
2022/04/04 06:54:43;;;;;;;;;21.50;21.50;;;;;;;;4947192;28;27849;-89
2022/04/04 06:57:09;;;;;;;;;22.25;21.25;;;;;;;;4943948;28;30201;-94
2022/04/04 06:59:34;;;;;;;;;23.25;21.75;;;;;;;;4968839;28;27842;-95
2022/04/04 07:02:00;;;;;;;;;24.00;23.25;;;;;;;;4937340;28;27832;-94
2022/04/04 07:04:25;;;;;;;;;26.67;26.67;;;;;;;;4951748;28;27919;-96
2022/04/04 07:06:50;;;;;;;;;21.75;20.00;;;;;;;;4933581;28;28470;-96
2022/04/04 07:09:31;;;;;;;;;21.00;21.00;;;;;;;;4962881;28;28608;-96
2022/04/04 07:12:09;;;;;;;;;22.40;21.20;;;;;;;;4982065;28;27723;-96
2022/04/04 07:14:34;;;;;;;;;21.50;21.50;;;;;;;;4979156;28;27882;-96
2022/04/04 07:17:01;;;;;;;;;27.40;22.40;;;;;;;;4996327;28;28400;-96
2022/04/04 07:19:33;;;;;;;;;28.00;22.00;;;;;;;;4981969;28;27695;-96
2022/04/04 07:22:03;;;;;;;;;23.00;23.00;;;;;;;;4995453;28;27771;-95
2022/04/04 07:24:29;;;;;;;;;21.75;21.75;;;;;;;;4994758;28;27897;-96
2022/04/04 07:26:55;;;;;;;;;22.67;22.67;;;;;;;;4976770;28;28540;-95
2022/04/04 07:29:42;;;;;;;;;23.25;22.25;;;;;;;;4974963;28;27779;-95
2022/04/04 07:32:09;;;;;;;;;21.00;21.00;;;;;;;;4989429;28;27861;-96
2022/04/04 07:34:43;;;;;;;;;24.40;21.00;;;;;;;;4978018;28;28194;-95
2022/04/04 07:42:20;;;;;;;;;27.25;24.25;;;;;;;;4975732;28;28102;-96
2022/04/04 07:44:45;;;;;;;;;23.00;20.00;;;;;;;;4970533;28;27926;-95
2022/04/04 07:47:11;;;;;;;;;23.25;20.25;;;;;;;;4970653;28;30625;-95
2022/04/04 07:49:36;;;;;;;;;27.25;27.25;;;;;;;;4968138;28;29074;-96
2022/04/04 07:52:04;;;;;;;;;20.33;19.67;;;;;;;;4966466;28;27881;-96
2022/04/04 07:54:29;;;;;;;;;21.75;21.00;;;;;;;;4955876;28;28410;-96
2022/04/04 07:56:56;;;;;;;;;26.00;23.00;;;;;;;;4966428;28;28661;-95
2022/04/04 07:59:21;;;;;;;;;21.25;21.25;;;;;;;;4952270;28;28092;-95
2022/04/04 08:01:47;;;;;;;;;21.00;19.60;;;;;;;;4948867;28;27763;-95
2022/04/04 08:04:12;;;;;;;;;25.33;22.00;;;;;;;;4966498;28;27987;-95
2022/04/04 08:06:37;;;;;;;;;21.00;21.00;;;;;;;;4947479;28;28488;-96
2022/04/04 08:09:02;;;;;;;;;21.25;19.50;;;;;;;;4959111;28;27679;-96
2022/04/04 08:11:28;;;;;;;;;20.50;18.00;;;;;;;;4967609;28;27817;-95
2022/04/04 08:13:53;;;;;;;;;24.75;24.00;;;;;;;;4964346;28;27817;-93
2022/04/04 08:16:19;;;;;;;;;17.00;17.00;;;;;;;;4964344;28;29853;-93
2022/04/04 08:18:44;;;;;;;;;22.50;21.75;;;;;;;;4964058;28;29451;-92
2022/04/04 08:21:09;;;;;;;;;23.00;22.00;;;;;;;;4948025;28;27758;-92
2022/04/04 08:23:34;;;;;;;;;19.00;19.00;;;;;;;;4964670;28;28353;-95
2022/04/04 08:26:00;;;;;;;;;18.25;18.25;;;;;;;;4963090;28;30151;-95
2022/04/04 08:28:27;;;;;;;;;22.50;22.50;;;;;;;;4965564;28;28793;-95
2022/04/04 08:30:53;;;;;;;;;19.50;19.50;;;;;;;;4964393;28;27773;-94
2022/04/04 08:33:18;;;;;;;;;20.00;18.25;;;;;;;;4963362;28;28137;-95
2022/04/04 08:35:45;;;;;;;;;20.00;16.00;;;;;;;;4955825;28;28544;-95
2022/04/04 08:38:10;;;;;;;;;24.75;21.75;;;;;;;;4945066;28;29584;-94
2022/04/04 08:40:36;;;;;;;;;24.50;20.00;;;;;;;;4960402;28;27740;-95
2022/04/04 08:43:02;;;;;;;;;20.25;20.25;;;;;;;;4962684;28;28388;-95
2022/04/04 08:45:27;;;;;;;;;18.00;17.00;;;;;;;;4961829;28;30185;-96
2022/04/04 08:47:54;;;;;;;;;21.75;20.25;;;;;;;;4961947;28;28656;-94
2022/04/04 08:50:19;;;;;;;;;20.50;20.50;;;;;;;;4962056;28;28562;-94
2022/04/04 08:52:45;;;;;;;;;21.33;20.00;;;;;;;;4962877;28;28328;-96
2022/04/04 08:55:12;;;;;;;;;22.25;20.00;;;;;;;;4955648;28;28452;-95
2022/04/04 08:57:38;;;;;;;;;22.80;22.80;;;;;;;;4942685;28;28625;-96
2022/04/04 09:00:03;;;;;;;;;19.00;19.00;;;;;;;;4959744;28;28410;-94
2022/04/04 09:02:28;;;;;;;;;22.50;20.00;;;;;;;;4970649;28;28451;-94
2022/04/04 09:05:01;;;;;;;;;21.00;19.50;;;;;;;;4958315;28;28637;-95
2022/04/04 09:07:27;;;;;;;;;21.60;21.60;;;;;;;;4940599;28;28480;-94
2022/04/04 09:09:53;;;;;;;;;18.75;18.00;;;;;;;;4941171;28;29028;-93
2022/04/04 09:12:19;;;;;;;;;17.25;15.50;;;;;;;;4942539;28;28346;-95
2022/04/04 09:14:52;;;;;;;;;23.50;22.00;;;;;;;;4940671;28;29849;-96
2022/04/04 09:17:21;;;;;;;;;20.40;20.40;;;;;;;;4940076;28;28576;-92
2022/04/04 09:19:47;;;;;;;;;23.00;23.00;;;;;;;;4937750;28;28357;-94
2022/04/04 09:22:13;;;;;;;;;17.00;16.00;;;;;;;;4937764;28;28801;-92
2022/04/04 09:24:58;;;;;;;;;18.20;18.20;;;;;;;;4937558;28;30376;-92
2022/04/04 09:27:26;;;;;;;;;18.00;18.00;;;;;;;;4943372;28;28623;-93
2022/04/04 09:29:54;;;;;;;;;17.80;16.60;;;;;;;;4956362;28;28389;-93
2022/04/04 09:32:20;;;;;;;;;21.50;21.50;;;;;;;;4957939;28;27837;-94
2022/04/04 09:34:56;;;;;;;;;18.25;16.75;;;;;;;;4948193;28;30333;-93
2022/04/04 09:37:23;;;;;;;;;19.00;18.00;;;;;;;;4956144;28;28534;-94
2022/04/04 09:39:50;;;;;;;;;21.75;18.25;;;;;;;;4937513;28;28431;-93
2022/04/04 09:42:16;;;;;;;;;22.50;20.50;;;;;;;;4938804;28;28331;-92
2022/04/04 09:44:41;;;;;;;;;16.80;15.80;;;;;;;;4940708;28;28693;-94
2022/04/04 09:47:06;;;;;;;;;21.25;19.00;;;;;;;;4958115;28;28512;-93
2022/04/04 09:49:37;;;;;;;;;13.50;13.50;;;;;;;;4958304;28;28455;-93
2022/04/04 09:52:03;;;;;;;;;14.00;14.00;;;;;;;;4974578;28;28025;-95
2022/04/04 09:54:29;;;;;;;;;15.75;15.00;;;;;;;;4939939;28;29942;-92
2022/04/04 09:57:10;;;;;;;;;14.25;13.00;;;;;;;;4956436;28;28299;-92
2022/04/04 09:59:36;;;;;;;;;18.00;16.75;;;;;;;;4956318;28;28539;-93
2022/04/04 10:02:02;;;;;;;;;16.40;16.40;;;;;;;;4954171;28;28697;-92
2022/04/04 10:04:28;;;;;;;;;14.00;14.00;;;;;;;;4951542;28;29657;-92
2022/04/04 10:06:54;;;;;;;;;17.40;17.40;;;;;;;;4941210;28;29006;-94
2022/04/04 10:09:19;;;;;;;;;18.25;18.25;;;;;;;;4942428;28;28131;-94
2022/04/04 10:11:45;;;;;;;;;19.75;18.25;;;;;;;;4959022;28;27936;-93
2022/04/04 10:14:14;;;;;;;;;18.20;16.20;;;;;;;;4957627;28;28378;-93
2022/04/04 10:16:39;;;;;;;;;24.00;18.50;;;;;;;;4956087;28;28422;-92
2022/04/04 10:19:05;;;;;;;;;17.75;17.25;;;;;;;;4956004;28;27879;-92
2022/04/04 10:21:30;;;;;;;;;16.50;16.50;;;;;;;;4954685;28;27988;-92
2022/04/04 10:23:56;;;;;;;;;26.50;22.25;;;;;;;;4938872;28;28185;-92
2022/04/04 10:26:26;;;;;;;;;14.80;14.80;;;;;;;;4938232;28;28523;-94
2022/04/04 10:29:05;;;;;;;;;20.50;17.25;;;;;;;;4937131;28;28311;-92
2022/04/04 10:31:40;;;;;;;;;20.80;18.40;;;;;;;;4948974;28;27917;-92
2022/04/04 10:34:13;;;;;;;;;20.75;19.00;;;;;;;;4971116;28;30177;-91
2022/04/04 10:36:52;;;;;;;;;18.80;18.80;;;;;;;;4955142;28;29412;-91
2022/04/04 10:39:30;;;;;;;;;19.25;18.00;;;;;;;;4950431;28;28343;-92
2022/04/04 10:41:56;;;;;;;;;20.00;16.00;;;;;;;;4944609;28;28519;-92
2022/04/04 10:44:42;;;;;;;;;22.25;18.75;;;;;;;;4947447;28;29968;-92
2022/04/04 10:47:19;;;;;;;;;18.75;18.00;;;;;;;;4934217;28;28467;-92
2022/04/04 10:49:44;;;;;;;;;14.25;14.25;;;;;;;;4944432;28;28121;-91
2022/04/04 10:52:10;;;;;;;;;18.00;17.00;;;;;;;;4952153;28;28428;-92
2022/04/04 10:54:38;;;;;;;;;17.50;17.50;;;;;;;;4954348;28;29682;-91
2022/04/04 10:57:14;;;;;;;;;18.75;18.75;;;;;;;;4949442;28;28469;-92
2022/04/04 10:59:39;;;;;;;;;17.33;16.00;;;;;;;;4970339;28;28360;-93
2022/04/04 11:02:05;;;;;;;;;18.75;17.75;;;;;;;;4961002;28;28416;-94
2022/04/04 11:04:30;;;;;;;;;18.50;16.50;;;;;;;;4954698;28;30612;-94
2022/04/04 11:09:53;;;;;;;;;18.25;18.25;;;;;;;;4969790;28;28520;-93
2022/04/04 11:12:22;;;;;;;;;19.00;16.00;;;;;;;;4954285;28;28559;-90
2022/04/04 11:14:54;;;;;;;;;22.25;19.25;;;;;;;;4953441;28;30081;-92
2022/04/04 11:17:26;;;;;;;;;16.75;16.00;;;;;;;;4953154;28;28587;-91
2022/04/04 11:20:10;;;;;;;;;17.20;15.60;;;;;;;;4953613;28;27928;-91
2022/04/04 11:22:41;;;;;;;;;15.50;15.50;;;;;;;;4954303;28;27793;-91
2022/04/04 11:25:07;;;;;;;;;15.75;15.75;;;;;;;;4953846;28;31011;-93
2022/04/04 11:27:36;;;;;;;;;18.00;16.00;;;;;;;;4953067;28;29337;-92
2022/04/04 11:30:05;;;;;;;;;17.20;17.20;;;;;;;;4972235;28;27916;-94
2022/04/04 11:32:33;;;;;;;;;15.00;15.00;;;;;;;;4972568;28;27897;-94
2022/04/04 11:35:07;;;;;;;;;19.00;16.00;;;;;;;;4973156;28;30127;-92
2022/04/04 11:37:39;;;;;;;;;14.00;14.00;;;;;;;;4972721;28;28088;-91
2022/04/04 11:40:06;;;;;;;;;16.40;13.00;;;;;;;;4975831;28;28012;-92
2022/04/04 11:42:39;;;;;;;;;14.50;14.50;;;;;;;;4957477;28;28745;-87
2022/04/04 11:45:04;;;;;;;;;17.00;13.25;;;;;;;;4954752;28;28932;-88
2022/04/04 11:47:29;;;;;;;;;15.75;15.75;;;;;;;;4955661;28;27798;-94
2022/04/04 11:49:58;;;;;;;;;14.00;14.00;;;;;;;;4954077;28;27921;-89
2022/04/04 11:52:25;;;;;;;;;15.60;15.60;;;;;;;;4971390;28;28501;-90
2022/04/04 11:54:51;;;;;;;;;15.75;14.75;;;;;;;;4971590;28;29233;-88
2022/04/04 11:57:17;;;;;;;;;14.25;12.75;;;;;;;;4971346;28;28358;-89
2022/04/04 11:59:47;;;;;;;;;13.33;13.33;;;;;;;;4957447;28;28532;-93
2022/04/04 12:02:13;;;;;;;;;15.00;15.00;;;;;;;;4955913;28;27972;-91
2022/04/04 12:04:39;;;;;;;;;16.00;16.00;;;;;;;;4972329;28;28538;-91
2022/04/04 12:07:05;;;;;;;;;19.00;18.00;;;;;;;;4956845;28;28651;-92
2022/04/04 12:09:31;;;;;;;;;25.00;25.00;;;;;;;;4973231;28;28445;-95
2022/04/04 12:12:15;;;;;;;;;16.00;16.00;;;;;;;;4957087;28;28563;-94
2022/04/04 12:14:41;;;;;;;;;14.25;12.75;;;;;;;;4957061;28;30139;-92
2022/04/04 12:17:08;;;;;;;;;14.75;11.75;;;;;;;;4977470;28;28326;-94
2022/04/04 12:19:47;;;;;;;;;15.75;13.75;;;;;;;;4962540;28;27857;-93
2022/04/04 12:25:00;;;;;;;;;13.60;13.60;;;;;;;;4964866;28;28378;-93
2022/04/04 12:27:25;;;;;;;;;12.00;12.00;;;;;;;;4957323;28;29628;-94
2022/04/04 12:29:57;;;;;;;;;11.67;11.67;;;;;;;;4952987;28;28086;-94
2022/04/04 12:32:22;;;;;;;;;15.75;15.75;;;;;;;;4951065;28;27964;-92
2022/04/04 12:34:58;;;;;;;;;12.25;12.25;;;;;;;;4952439;28;29847;-94
2022/04/04 12:37:39;;;;;;;;;12.00;12.00;;;;;;;;4958014;28;28653;-93
2022/04/04 12:40:15;;;;;;;;;13.25;13.25;;;;;;;;4946024;28;28470;-96
2022/04/04 12:42:41;;;;;;;;;17.00;15.00;;;;;;;;4962698;28;27991;-94
2022/04/04 12:45:07;;;;;;;;;13.75;10.50;;;;;;;;4960989;28;30037;-95
2022/04/04 12:47:58;;;;;;;;;11.00;11.00;;;;;;;;4965358;28;28330;-92
2022/04/04 12:50:25;;;;;;;;;16.20;16.20;;;;;;;;4961022;28;28036;-95
2022/04/04 12:52:57;;;;;;;;;12.20;12.20;;;;;;;;4963819;28;28382;-94
2022/04/04 12:55:23;;;;;;;;;11.25;11.25;;;;;;;;4950023;28;29821;-96
2022/04/04 12:57:48;;;;;;;;;13.00;13.00;;;;;;;;4949827;28;28679;-93
2022/04/04 13:00:24;;;;;;;;;16.00;14.75;;;;;;;;4939463;28;28454;-94
2022/04/04 13:02:49;;;;;;;;;14.00;12.80;;;;;;;;4949705;28;27889;-94
2022/04/04 13:05:18;;;;;;;;;11.00;11.00;;;;;;;;4943151;28;29810;-94
2022/04/04 13:07:51;;;;;;;;;12.00;11.00;;;;;;;;4942646;28;29011;-94
2022/04/04 13:10:16;;;;;;;;;18.00;15.25;;;;;;;;4945631;28;27892;-94
2022/04/04 13:12:42;;;;;;;;;12.25;11.25;;;;;;;;4944998;28;27794;-94
2022/04/04 13:15:09;;;;;;;;;14.40;14.40;;;;;;;;4949134;28;28659;-94
2022/04/04 13:17:35;;;;;;;;;15.00;14.40;;;;;;;;4947045;28;28711;-95
2022/04/04 13:20:00;;;;;;;;;17.00;15.20;;;;;;;;4946904;28;27790;-96
2022/04/04 13:22:27;;;;;;;;;10.00;10.00;;;;;;;;4962855;28;27940;-94
2022/04/04 13:24:52;;;;;;;;;11.25;11.25;;;;;;;;4944360;28;30284;-94
2022/04/04 13:27:22;;;;;;;;;13.00;13.00;;;;;;;;4945289;28;28859;-95
2022/04/04 13:29:47;;;;;;;;;10.00;10.00;;;;;;;;4959867;28;27865;-96
2022/04/04 13:32:12;;;;;;;;;11.00;11.00;;;;;;;;4962124;28;27853;-94
2022/04/04 13:34:38;;;;;;;;;14.50;13.00;;;;;;;;4963826;28;29774;-94
2022/04/04 13:37:03;;;;;;;;;9.75;8.50;;;;;;;;4953905;28;29790;-95
2022/04/04 13:39:28;;;;;;;;;12.00;12.00;;;;;;;;4945961;28;28433;-95
2022/04/04 13:41:53;;;;;;;;;13.00;10.33;;;;;;;;4942654;28;27892;-95
2022/04/04 13:44:19;;;;;;;;;11.00;10.25;;;;;;;;4939710;28;29736;-94
2022/04/04 13:46:44;;;;;;;;;12.00;10.50;;;;;;;;4938008;28;29058;-94
2022/04/04 13:49:09;;;;;;;;;11.75;11.75;;;;;;;;4938064;28;28271;-95
2022/04/04 13:51:35;;;;;;;;;10.67;9.67;;;;;;;;4942495;28;28266;-93
2022/04/04 13:54:02;;;;;;;;;13.75;12.75;;;;;;;;4942077;28;29673;-93
2022/04/04 13:56:28;;;;;;;;;16.00;16.00;;;;;;;;4941165;28;28717;-95
2022/04/04 13:58:54;;;;;;;;;13.75;13.75;;;;;;;;4944646;28;27803;-96
2022/04/04 14:01:46;;;;;;;;;8.25;8.25;;;;;;;;4949595;28;28560;-96
2022/04/04 14:04:12;;;;;;;;;9.40;8.40;;;;;;;;4949294;28;28271;-96
2022/04/04 14:06:37;;;;;;;;;10.00;10.00;;;;;;;;4945203;28;27774;-95
2022/04/04 14:09:02;;;;;;;;;10.75;10.75;;;;;;;;4926431;28;27858;-96
2022/04/04 14:11:29;;;;;;;;;10.67;9.00;;;;;;;;4955485;28;28600;-93
2022/04/04 14:13:54;;;;;;;;;8.20;8.20;;;;;;;;4957559;28;29898;-93
2022/04/04 14:16:20;;;;;;;;;10.00;10.00;;;;;;;;4956200;28;29025;-92
2022/04/04 14:18:46;;;;;;;;;9.50;8.25;;;;;;;;4945349;28;28382;-94
2022/04/04 14:21:14;;;;;;;;;8.60;7.20;;;;;;;;4953400;28;28269;-94
2022/04/04 14:23:41;;;;;;;;;6.00;6.00;;;;;;;;4937021;28;28405;-94
2022/04/04 14:26:06;;;;;;;;;8.00;8.00;;;;;;;;4950654;28;28897;-94
2022/04/04 14:28:34;;;;;;;;;5.67;5.67;;;;;;;;4956815;28;28489;-94
2022/04/04 14:31:00;;;;;;;;;5.50;4.25;;;;;;;;4957662;28;28524;-95
2022/04/04 14:33:27;;;;;;;;;5.00;5.00;;;;;;;;4958165;28;29775;-95